Artesia Wells, Texas
Current Conditions -  °F | °C
As of 3:53 AM on Saturday 22 Nov 2014 (Local Time) from KCOT Reporting Station
Overcast Overcast  
Wind Chill: 71°   Ceiling: 1400
Heat Index: 71°   Visibility: 10mi
Dew Point: 66°   Wind: 15mph
Humidity: 84%   Direction: 130°SE
Pressure: 29.95"   Gusts: NA
Location:  28.28°N, 99.29°W
Report Text: KCOT 220953Z AUTO 13013KT 10SM OVC014 22/19 A2995 RMK AO2 SLP133 T02170189 $
Loading
Personal Weather Stations






























Interactive Weather Map New forecast layout! Learn more

10-Day Weather Forecast

Advertisements
Track Severe Weather on mobile